Blackcomb Spirit — C6BC4 — position and weather

sailwx.info

Track history (hours):
 
Tides and Currents Weather Stations Pressure Air Temp Water Temp Dewpoint Dewpoint Depression Visibility Wind Speed Wind Dir Waves Ship Positions

Blackcomb Spirit

Last reported at 2017-Dec-24 14:25 UTC. Time now 2018-Jan-22 16:24 UTC.
Position N 35°58' W 005°38'.
Warning: this ship's position is 29 days out of date.

Length 243 m; draft 8.5 m.

Type: Tanker. MMSI: 311000223.

Date/timePositionNaut miles runAvg speedWind from/ knotsBaromVisibWave heightAir tempDewpointWater temp
2017-Dec-24 14:25N 35°58' W 005°38'513.1
2017-Dec-24 14:00N 35°59' W 005°32'612.2
2017-Dec-24 13:30N 36°02' W 005°25'510.6
2017-Dec-24 13:00N 36°06' W 005°22'0 0.8
2017-Dec-24 12:23N 36°07' W 005°22'0 0.1
2017-Dec-24 11:32N 36°07' W 005°22'0 0.7
2017-Dec-24 11:29N 36°07' W 005°22'0 0.1
2017-Dec-24 10:50N 36°07' W 005°22'0 0.0
2017-Dec-24 07:02N 36°07' W 005°22'0 0.1
2017-Dec-24 06:59N 36°07' W 005°22'0 0.0
2017-Dec-24 05:41N 36°07' W 005°22'0 0.1
2017-Dec-24 05:17N 36°07' W 005°22'0 0.2
2017-Dec-24 04:59N 36°07' W 005°22'0 0.0
2017-Dec-24 04:26N 36°07' W 005°22'0 0.1
2017-Dec-24 03:59N 36°07' W 005°22'0 0.1
2017-Dec-24 03:20N 36°07' W 005°22'0 0.0
2017-Dec-24 02:53N 36°07' W 005°22'0 0.0
2017-Dec-24 02:26N 36°07' W 005°22'0 0.0
2017-Dec-24 01:08N 36°07' W 005°22'0 0.0
2017-Dec-24 00:44N 36°07' W 005°22'0 0.0
2017-Dec-24 00:26N 36°07' W 005°22'0 0.0
2017-Dec-23 23:56N 36°07' W 005°22'0 0.0
2017-Dec-23 22:50N 36°07' W 005°22'1 1.1
2017-Dec-23 21:42N 36°06' W 005°22'2 5.1
2017-Dec-23 21:23N 36°04' W 005°21'3 8.5
2017-Dec-23 21:00N 36°04' W 005°17'5 0.6
2017-Dec-23 12:51N 35°59' W 005°18'411.1
2017-Dec-23 12:30N 35°59' W 005°22'611.1
2017-Dec-23 12:00N 35°57' W 005°29'15010.7
2017-Dec-22 21:58N 36°24' W 008°31'611.9
2017-Dec-22 21:30N 36°26' W 008°38'611.9
2017-Dec-22 21:00N 36°28' W 008°45'612.3
2017-Dec-22 20:30N 36°29' W 008°52'2711.6
2017-Dec-22 18:12N 36°39' W 009°23'211.9
2017-Dec-22 18:00N 36°41' W 009°25'612.0
2017-Dec-22 17:30N 36°46' W 009°30'611.5
2017-Dec-22 17:00N 36°50' W 009°34'3712.3
2017-Dec-22 14:01N 37°26' W 009°44'011.0
2017-Dec-22 14:00N 37°26' W 009°44'612.2
2017-Dec-22 13:30N 37°32' W 009°46'611.7
2017-Dec-22 13:00N 37°38' W 009°48'611.5
2017-Dec-22 12:30N 37°43' W 009°51'611.9
2017-Dec-22 12:00N 37°49' W 009°53'612.1
2017-Dec-22 11:30N 37°55' W 009°54'612.1
2017-Dec-22 11:00N 38°01' W 009°56'612.0
2017-Dec-22 10:30N 38°07' W 009°57'612.0
2017-Dec-22 10:00N 38°12' W 009°59'612.0
2017-Dec-22 09:30N 38°18' W 010°01'612.1
2017-Dec-22 09:00N 38°24' W 010°02'612.0
2017-Dec-22 08:30N 38°30' W 010°03'611.9
2017-Dec-22 08:00N 38°36' W 010°04'611.9
2017-Dec-22 07:30N 38°42' W 010°06'611.6
2017-Dec-22 07:00N 38°48' W 010°06'5 9.3
2017-Dec-22 06:30N 38°52' W 010°06'612.3
2017-Dec-22 06:00N 38°58' W 010°06'612.8
2017-Dec-22 05:30N 39°05' W 010°07'612.5
2017-Dec-22 05:00N 39°11' W 010°06'612.9
2017-Dec-22 04:30N 39°18' W 010°06'612.9
2017-Dec-22 04:00N 39°24' W 010°06'612.7
2017-Dec-22 03:30N 39°30' W 010°06'612.7
2017-Dec-22 03:00N 39°37' W 010°05'612.9
2017-Dec-22 02:30N 39°43' W 010°05'2212.6
2017-Dec-22 00:45N 40°05' W 010°06'312.5
2017-Dec-22 00:30N 40°08' W 010°07'812.5
2017-Dec-21 23:53N 40°16' W 010°07'1012.9
2017-Dec-21 23:06N 40°26' W 010°08'213.0
2017-Dec-21 22:58N 40°28' W 010°08'283 6.6
2017-Dec-20 04:25N 43°59' W 005°55'4 8.8
2017-Dec-20 03:59N 43°58' W 005°49'4 8.6
2017-Dec-20 03:30N 43°58' W 005°43'4 8.6
2017-Dec-20 03:00N 43°58' W 005°38'4 8.4
2017-Dec-20 02:29N 43°57' W 005°31'4 8.4
2017-Dec-20 02:00N 43°56' W 005°26'59 8.5
2017-Dec-19 18:59N 43°49' W 004°04'4 8.6
2017-Dec-19 18:30N 43°48' W 003°59'4 8.5
2017-Dec-19 18:00N 43°48' W 003°53'5 8.6
2017-Dec-19 17:24N 43°47' W 003°46'3 8.3
2017-Dec-19 17:00N 43°47' W 003°41'4 8.5
2017-Dec-19 16:30N 43°46' W 003°35'4 8.4
2017-Dec-19 16:00N 43°45' W 003°30'4 8.4
2017-Dec-19 15:30N 43°44' W 003°24'4 8.3
2017-Dec-19 15:00N 43°43' W 003°18'7 9.3
2017-Dec-19 14:15N 43°37' W 003°14'313.6
2017-Dec-19 14:00N 43°34' W 003°12'713.7
2017-Dec-19 13:31N 43°28' W 003°08'611.3
2017-Dec-19 13:00N 43°22' W 003°05'1 1.2
2017-Dec-19 12:30N 43°22' W 003°06'0 0.0
2017-Dec-19 12:00N 43°22' W 003°06'0 0.0
2017-Dec-19 11:30N 43°22' W 003°06'0 0.0
2017-Dec-19 11:00N 43°22' W 003°06'0 0.0
2017-Dec-17 23:18N 43°22' W 003°06'0 0.0
2017-Dec-17 23:00N 43°22' W 003°06'0 0.0
2017-Dec-17 22:30N 43°22' W 003°06'0 0.4
2017-Dec-17 22:00N 43°22' W 003°05'2 3.3
2017-Dec-17 21:30N 43°24' W 003°05'1 2.0
2017-Dec-17 21:00N 43°25' W 003°06'1 1.3
2017-Dec-17 20:30N 43°25' W 003°06'1 2.0
2017-Dec-17 20:00N 43°26' W 003°07'2 3.7
2017-Dec-17 19:30N 43°28' W 003°08'5 9.8
2017-Dec-17 19:01N 43°33' W 003°08'612.8
2017-Dec-17 18:30N 43°39' W 003°06'3 5.6
2017-Dec-17 18:00N 43°42' W 003°05'0 0.9
2017-Dec-17 17:30N 43°42' W 003°05'1 0.9
2017-Dec-17 16:55N 43°42' W 003°06'0 0.9
2017-Dec-17 16:30N 43°42' W 003°07'0 1.0
2017-Dec-17 16:00N 43°42' W 003°07'0 1.0
2017-Dec-17 15:30N 43°43' W 003°08'0 0.9
2017-Dec-17 15:00N 43°43' W 003°08'1 1.0
2017-Dec-17 14:29N 43°43' W 003°09'0 1.0
2017-Dec-17 14:00N 43°43' W 003°10'1 1.0
2017-Dec-17 13:30N 43°43' W 003°11'1 1.0
2017-Dec-17 13:00N 43°43' W 003°11'1 1.1
2017-Dec-17 12:30N 43°43' W 003°12'0 1.0
2017-Dec-17 12:01N 43°43' W 003°13'0 1.0
2017-Dec-17 11:30N 43°43' W 003°13'0 0.9
2017-Dec-17 11:00N 43°43' W 003°14'1 0.8
2017-Dec-17 10:21N 43°43' W 003°15'0 0.8
2017-Dec-17 10:00N 43°43' W 003°15'0 0.7
2017-Dec-17 09:30N 43°43' W 003°16'0 0.8
2017-Dec-17 09:00N 43°43' W 003°16'0 0.7
2017-Dec-17 08:30N 43°43' W 003°17'0 0.7
2017-Dec-17 08:00N 43°43' W 003°17'0 0.6
2017-Dec-17 07:29N 43°43' W 003°17'0 0.7
2017-Dec-17 07:00N 43°43' W 003°18'0 0.7
2017-Dec-17 06:30N 43°43' W 003°18'0 0.8
2017-Dec-17 06:00N 43°43' W 003°19'0 0.7
2017-Dec-17 05:30N 43°43' W 003°19'0 0.8
2017-Dec-17 05:00N 43°43' W 003°20'0 0.7
2017-Dec-17 04:30N 43°43' W 003°20'0 0.8
2017-Dec-17 04:01N 43°44' W 003°21'0 0.8
2017-Dec-17 03:30N 43°43' W 003°21'0 0.4
2017-Dec-17 02:58N 43°43' W 003°22'1 2.9
2017-Dec-17 02:30N 43°43' W 003°20'2 3.2
2017-Dec-17 02:00N 43°41' W 003°18'2 3.2
2017-Dec-17 01:30N 43°40' W 003°17'2 3.1
2017-Dec-17 01:00N 43°39' W 003°15'2 3.1
2017-Dec-17 00:30N 43°38' W 003°14'2 3.1
2017-Dec-17 00:00N 43°37' W 003°12'2 3.0
2017-Dec-16 23:28N 43°36' W 003°10'1 2.8
2017-Dec-16 22:58N 43°35' W 003°09'1 2.7
2017-Dec-16 22:31N 43°34' W 003°08'1 2.8
2017-Dec-16 22:00N 43°33' W 003°06'1 2.3
2017-Dec-16 21:30N 43°32' W 003°05'2 3.2
2017-Dec-16 21:00N 43°34' W 003°07'2 4.5
2017-Dec-16 20:30N 43°35' W 003°09'3 5.6
2017-Dec-16 20:00N 43°37' W 003°12'3 5.4
2017-Dec-16 19:30N 43°39' W 003°14'2 4.4
2017-Dec-16 19:00N 43°41' W 003°16'1 1.4
2017-Dec-16 18:30N 43°41' W 003°17'1 1.2
2017-Dec-16 17:34N 43°40' W 003°16'0 2.7
2017-Dec-16 17:30N 43°40' W 003°16'1 2.6
2017-Dec-16 17:00N 43°39' W 003°14'1 2.6
2017-Dec-16 16:30N 43°39' W 003°13'1 2.5
2017-Dec-16 16:00N 43°38' W 003°12'1 2.7
2017-Dec-16 15:31N 43°37' W 003°10'1 2.5
2017-Dec-16 15:00N 43°36' W 003°09'1 2.4
2017-Dec-16 14:30N 43°35' W 003°08'1 2.3
2017-Dec-16 14:00N 43°34' W 003°07'1 1.6
2017-Dec-16 13:30N 43°34' W 003°07'1 1.5
2017-Dec-16 13:01N 43°34' W 003°08'1 1.3
2017-Dec-16 12:29N 43°34' W 003°09'2 3.6
2017-Dec-16 12:00N 43°34' W 003°12'3 5.1
2017-Dec-16 11:30N 43°36' W 003°14'1 1.4
2017-Dec-16 11:01N 43°36' W 003°13'1 2.2
2017-Dec-16 10:31N 43°35' W 003°12'1 1.9
2017-Dec-16 10:00N 43°35' W 003°11'1 1.9
2017-Dec-16 09:30N 43°34' W 003°10'1 1.5
2017-Dec-16 09:00N 43°33' W 003°10'1 1.4
2017-Dec-16 08:30N 43°33' W 003°09'1 1.3
2017-Dec-16 08:00N 43°32' W 003°08'0 0.8
2017-Dec-16 07:30N 43°32' W 003°08'2 4.2
2017-Dec-16 07:00N 43°33' W 003°10'3 5.2
2017-Dec-16 06:31N 43°34' W 003°14'1 1.6
2017-Dec-16 06:01N 43°35' W 003°14'1 1.2
2017-Dec-16 05:31N 43°35' W 003°13'1 1.0
2017-Dec-16 05:01N 43°35' W 003°13'0 0.8
2017-Dec-16 04:30N 43°35' W 003°12'0 0.5
2017-Dec-16 04:00N 43°35' W 003°12'0 0.9
2017-Dec-16 03:27N 43°34' W 003°12'1 1.5
2017-Dec-16 03:01N 43°34' W 003°11'0 0.5
2017-Dec-16 02:31N 43°35' W 003°11'1 1.6
2017-Dec-16 02:01N 43°34' W 003°12'1 1.6
2017-Dec-16 01:30N 43°33' W 003°12'0 1.0
2017-Dec-16 01:00N 43°33' W 003°13'1 1.5
2017-Dec-16 00:31N 43°33' W 003°12'1 1.2
2017-Dec-16 00:01N 43°33' W 003°11'1 1.4
2017-Dec-15 23:31N 43°33' W 003°12'1 1.5
2017-Dec-15 23:00N 43°33' W 003°13'0 0.9
2017-Dec-15 22:30N 43°32' W 003°13'0 0.8
2017-Dec-15 22:00N 43°32' W 003°13'1 1.1
2017-Dec-15 21:30N 43°32' W 003°12'1 1.1
2017-Dec-15 21:00N 43°31' W 003°11'1 1.2
2017-Dec-15 20:30N 43°31' W 003°11'0 0.9
2017-Dec-15 20:01N 43°31' W 003°10'1 1.0
2017-Dec-15 19:31N 43°31' W 003°09'1 1.1
2017-Dec-15 19:00N 43°31' W 003°09'0 1.0
2017-Dec-15 18:31N 43°31' W 003°08'1 0.9
2017-Dec-15 17:51N 43°31' W 003°07'0 0.6
2017-Dec-15 17:31N 43°31' W 003°07'0 0.4
2017-Dec-15 17:00N 43°31' W 003°07'0 0.6
2017-Dec-15 16:30N 43°31' W 003°06'0 0.5
2017-Dec-15 16:00N 43°31' W 003°06'0 0.3
2017-Dec-15 15:30N 43°31' W 003°06'0 0.4
2017-Dec-15 15:01N 43°31' W 003°06'0 0.6
2017-Dec-15 14:31N 43°32' W 003°06'0 0.7
2017-Dec-15 14:00N 43°32' W 003°06'1 1.3
2017-Dec-15 13:30N 43°32' W 003°07'0 0.5
2017-Dec-15 13:00N 43°32' W 003°07'0 0.5
2017-Dec-15 12:30N 43°32' W 003°08'0 0.7
2017-Dec-15 12:00N 43°32' W 003°08'0 0.7
2017-Dec-15 11:30N 43°32' W 003°09'0 0.5
2017-Dec-15 11:00N 43°31' W 003°09'0 0.3
2017-Dec-15 10:30N 43°31' W 003°09'0 0.1
2017-Dec-15 10:00N 43°31' W 003°09'0 0.4
2017-Dec-15 09:30N 43°32' W 003°09'0 0.4
2017-Dec-15 09:00N 43°32' W 003°09'0 0.3
2017-Dec-15 08:30N 43°32' W 003°09'0 0.4
2017-Dec-15 08:01N 43°32' W 003°08'0 0.9
2017-Dec-15 07:31N 43°32' W 003°08'0 0.9
2017-Dec-15 07:01N 43°33' W 003°08'0 0.7
2017-Dec-15 06:31N 43°33' W 003°07'0 0.8
2017-Dec-15 06:01N 43°33' W 003°07'0 0.7
2017-Dec-15 05:31N 43°34' W 003°07'1 1.6
2017-Dec-15 05:00N 43°33' W 003°08'1 1.4
2017-Dec-15 04:31N 43°33' W 003°09'1 2.8
2017-Dec-15 04:01N 43°31' W 003°10'2 1.4
2017-Dec-15 02:31N 43°30' W 003°12'2 1.0
2017-Dec-15 01:00N 43°31' W 003°11'0 1.0
2017-Dec-15 00:30N 43°32' W 003°11'1 0.2
2017-Dec-14 18:31N 43°31' W 003°09'1 1.3
2017-Dec-14 18:00N 43°32' W 003°09'0 1.0
2017-Dec-14 17:31N 43°33' W 003°09'0 1.0
2017-Dec-14 17:01N 43°33' W 003°08'1 1.3
2017-Dec-14 16:31N 43°33' W 003°08'1 1.4
2017-Dec-14 16:00N 43°34' W 003°07'1 1.2
2017-Dec-14 15:01N 43°35' W 003°06'0 0.9
2017-Dec-14 14:30N 43°35' W 003°06'  
Track history (hours):
 
Tides and Currents Weather Stations Pressure Air Temp Water Temp Dewpoint Dewpoint Depression Visibility Wind Speed Wind Dir Waves Ship Positions

Blackcomb Spirit

Last reported at 2017-Dec-24 14:25 UTC. Time now 2018-Jan-22 16:24 UTC.
Position N 35°58' W 005°38'.
Warning: this ship's position is 29 days out of date.

Length 243 m; draft 8.5 m.

Type: Tanker. MMSI: 311000223.

Date/timePositionNaut miles runAvg speedWind from/ knotsBaromVisibWave heightAir tempDewpointWater temp
2017-Dec-24 14:25N 35°58' W 005°38'513.1
2017-Dec-24 14:00N 35°59' W 005°32'612.2
2017-Dec-24 13:30N 36°02' W 005°25'510.6
2017-Dec-24 13:00N 36°06' W 005°22'0 0.8
2017-Dec-24 12:23N 36°07' W 005°22'0 0.1
2017-Dec-24 11:32N 36°07' W 005°22'0 0.7
2017-Dec-24 11:29N 36°07' W 005°22'0 0.1
2017-Dec-24 10:50N 36°07' W 005°22'0 0.0
2017-Dec-24 07:02N 36°07' W 005°22'0 0.1
2017-Dec-24 06:59N 36°07' W 005°22'0 0.0
2017-Dec-24 05:41N 36°07' W 005°22'0 0.1
2017-Dec-24 05:17N 36°07' W 005°22'0 0.2
2017-Dec-24 04:59N 36°07' W 005°22'0 0.0
2017-Dec-24 04:26N 36°07' W 005°22'0 0.1
2017-Dec-24 03:59N 36°07' W 005°22'0 0.1
2017-Dec-24 03:20N 36°07' W 005°22'0 0.0
2017-Dec-24 02:53N 36°07' W 005°22'0 0.0
2017-Dec-24 02:26N 36°07' W 005°22'0 0.0
2017-Dec-24 01:08N 36°07' W 005°22'0 0.0
2017-Dec-24 00:44N 36°07' W 005°22'0 0.0
2017-Dec-24 00:26N 36°07' W 005°22'0 0.0
2017-Dec-23 23:56N 36°07' W 005°22'0 0.0
2017-Dec-23 22:50N 36°07' W 005°22'1 1.1
2017-Dec-23 21:42N 36°06' W 005°22'2 5.1
2017-Dec-23 21:23N 36°04' W 005°21'3 8.5
2017-Dec-23 21:00N 36°04' W 005°17'5 0.6
2017-Dec-23 12:51N 35°59' W 005°18'411.1
2017-Dec-23 12:30N 35°59' W 005°22'611.1
2017-Dec-23 12:00N 35°57' W 005°29'15010.7
2017-Dec-22 21:58N 36°24' W 008°31'611.9
2017-Dec-22 21:30N 36°26' W 008°38'611.9
2017-Dec-22 21:00N 36°28' W 008°45'612.3
2017-Dec-22 20:30N 36°29' W 008°52'2711.6
2017-Dec-22 18:12N 36°39' W 009°23'211.9
2017-Dec-22 18:00N 36°41' W 009°25'612.0
2017-Dec-22 17:30N 36°46' W 009°30'611.5
2017-Dec-22 17:00N 36°50' W 009°34'3712.3
2017-Dec-22 14:01N 37°26' W 009°44'011.0
2017-Dec-22 14:00N 37°26' W 009°44'612.2
2017-Dec-22 13:30N 37°32' W 009°46'611.7
2017-Dec-22 13:00N 37°38' W 009°48'611.5
2017-Dec-22 12:30N 37°43' W 009°51'611.9
2017-Dec-22 12:00N 37°49' W 009°53'612.1
2017-Dec-22 11:30N 37°55' W 009°54'612.1
2017-Dec-22 11:00N 38°01' W 009°56'612.0
2017-Dec-22 10:30N 38°07' W 009°57'612.0
2017-Dec-22 10:00N 38°12' W 009°59'612.0
2017-Dec-22 09:30N 38°18' W 010°01'612.1
2017-Dec-22 09:00N 38°24' W 010°02'612.0
2017-Dec-22 08:30N 38°30' W 010°03'611.9
2017-Dec-22 08:00N 38°36' W 010°04'611.9
2017-Dec-22 07:30N 38°42' W 010°06'611.6
2017-Dec-22 07:00N 38°48' W 010°06'5 9.3
2017-Dec-22 06:30N 38°52' W 010°06'612.3
2017-Dec-22 06:00N 38°58' W 010°06'612.8
2017-Dec-22 05:30N 39°05' W 010°07'612.5
2017-Dec-22 05:00N 39°11' W 010°06'612.9
2017-Dec-22 04:30N 39°18' W 010°06'612.9
2017-Dec-22 04:00N 39°24' W 010°06'612.7
2017-Dec-22 03:30N 39°30' W 010°06'612.7
2017-Dec-22 03:00N 39°37' W 010°05'612.9
2017-Dec-22 02:30N 39°43' W 010°05'2212.6
2017-Dec-22 00:45N 40°05' W 010°06'312.5
2017-Dec-22 00:30N 40°08' W 010°07'812.5
2017-Dec-21 23:53N 40°16' W 010°07'1012.9
2017-Dec-21 23:06N 40°26' W 010°08'213.0
2017-Dec-21 22:58N 40°28' W 010°08'283 6.6
2017-Dec-20 04:25N 43°59' W 005°55'4 8.8
2017-Dec-20 03:59N 43°58' W 005°49'4 8.6
2017-Dec-20 03:30N 43°58' W 005°43'4 8.6
2017-Dec-20 03:00N 43°58' W 005°38'4 8.4
2017-Dec-20 02:29N 43°57' W 005°31'4 8.4
2017-Dec-20 02:00N 43°56' W 005°26'59 8.5
2017-Dec-19 18:59N 43°49' W 004°04'4 8.6
2017-Dec-19 18:30N 43°48' W 003°59'4 8.5
2017-Dec-19 18:00N 43°48' W 003°53'5 8.6
2017-Dec-19 17:24N 43°47' W 003°46'3 8.3
2017-Dec-19 17:00N 43°47' W 003°41'4 8.5
2017-Dec-19 16:30N 43°46' W 003°35'4 8.4
2017-Dec-19 16:00N 43°45' W 003°30'4 8.4
2017-Dec-19 15:30N 43°44' W 003°24'4 8.3
2017-Dec-19 15:00N 43°43' W 003°18'7 9.3
2017-Dec-19 14:15N 43°37' W 003°14'313.6
2017-Dec-19 14:00N 43°34' W 003°12'713.7
2017-Dec-19 13:31N 43°28' W 003°08'611.3
2017-Dec-19 13:00N 43°22' W 003°05'1 1.2
2017-Dec-19 12:30N 43°22' W 003°06'0 0.0
2017-Dec-19 12:00N 43°22' W 003°06'0 0.0
2017-Dec-19 11:30N 43°22' W 003°06'0 0.0
2017-Dec-19 11:00N 43°22' W 003°06'0 0.0
2017-Dec-17 23:18N 43°22' W 003°06'0 0.0
2017-Dec-17 23:00N 43°22' W 003°06'0 0.0
2017-Dec-17 22:30N 43°22' W 003°06'0 0.4
2017-Dec-17 22:00N 43°22' W 003°05'2 3.3
2017-Dec-17 21:30N 43°24' W 003°05'1 2.0
2017-Dec-17 21:00N 43°25' W 003°06'1 1.3
2017-Dec-17 20:30N 43°25' W 003°06'1 2.0
2017-Dec-17 20:00N 43°26' W 003°07'2 3.7
2017-Dec-17 19:30N 43°28' W 003°08'5 9.8
2017-Dec-17 19:01N 43°33' W 003°08'612.8
2017-Dec-17 18:30N 43°39' W 003°06'3 5.6
2017-Dec-17 18:00N 43°42' W 003°05'0 0.9
2017-Dec-17 17:30N 43°42' W 003°05'1 0.9
2017-Dec-17 16:55N 43°42' W 003°06'0 0.9
2017-Dec-17 16:30N 43°42' W 003°07'0 1.0
2017-Dec-17 16:00N 43°42' W 003°07'0 1.0
2017-Dec-17 15:30N 43°43' W 003°08'0 0.9
2017-Dec-17 15:00N 43°43' W 003°08'1 1.0
2017-Dec-17 14:29N 43°43' W 003°09'0 1.0
2017-Dec-17 14:00N 43°43' W 003°10'1 1.0
2017-Dec-17 13:30N 43°43' W 003°11'1 1.0
2017-Dec-17 13:00N 43°43' W 003°11'1 1.1
2017-Dec-17 12:30N 43°43' W 003°12'0 1.0
2017-Dec-17 12:01N 43°43' W 003°13'0 1.0
2017-Dec-17 11:30N 43°43' W 003°13'0 0.9
2017-Dec-17 11:00N 43°43' W 003°14'1 0.8
2017-Dec-17 10:21N 43°43' W 003°15'0 0.8
2017-Dec-17 10:00N 43°43' W 003°15'0 0.7
2017-Dec-17 09:30N 43°43' W 003°16'0 0.8
2017-Dec-17 09:00N 43°43' W 003°16'0 0.7
2017-Dec-17 08:30N 43°43' W 003°17'0 0.7
2017-Dec-17 08:00N 43°43' W 003°17'0 0.6
2017-Dec-17 07:29N 43°43' W 003°17'0 0.7
2017-Dec-17 07:00N 43°43' W 003°18'0 0.7
2017-Dec-17 06:30N 43°43' W 003°18'0 0.8
2017-Dec-17 06:00N 43°43' W 003°19'0 0.7
2017-Dec-17 05:30N 43°43' W 003°19'0 0.8
2017-Dec-17 05:00N 43°43' W 003°20'0 0.7
2017-Dec-17 04:30N 43°43' W 003°20'0 0.8
2017-Dec-17 04:01N 43°44' W 003°21'0 0.8
2017-Dec-17 03:30N 43°43' W 003°21'0 0.4
2017-Dec-17 02:58N 43°43' W 003°22'1 2.9
2017-Dec-17 02:30N 43°43' W 003°20'2 3.2
2017-Dec-17 02:00N 43°41' W 003°18'2 3.2
2017-Dec-17 01:30N 43°40' W 003°17'2 3.1
2017-Dec-17 01:00N 43°39' W 003°15'2 3.1
2017-Dec-17 00:30N 43°38' W 003°14'2 3.1
2017-Dec-17 00:00N 43°37' W 003°12'2 3.0
2017-Dec-16 23:28N 43°36' W 003°10'1 2.8
2017-Dec-16 22:58N 43°35' W 003°09'1 2.7
2017-Dec-16 22:31N 43°34' W 003°08'1 2.8
2017-Dec-16 22:00N 43°33' W 003°06'1 2.3
2017-Dec-16 21:30N 43°32' W 003°05'2 3.2
2017-Dec-16 21:00N 43°34' W 003°07'2 4.5
2017-Dec-16 20:30N 43°35' W 003°09'3 5.6
2017-Dec-16 20:00N 43°37' W 003°12'3 5.4
2017-Dec-16 19:30N 43°39' W 003°14'2 4.4
2017-Dec-16 19:00N 43°41' W 003°16'1 1.4
2017-Dec-16 18:30N 43°41' W 003°17'1 1.2
2017-Dec-16 17:34N 43°40' W 003°16'0 2.7
2017-Dec-16 17:30N 43°40' W 003°16'1 2.6
2017-Dec-16 17:00N 43°39' W 003°14'1 2.6
2017-Dec-16 16:30N 43°39' W 003°13'1 2.5
2017-Dec-16 16:00N 43°38' W 003°12'1 2.7
2017-Dec-16 15:31N 43°37' W 003°10'1 2.5
2017-Dec-16 15:00N 43°36' W 003°09'1 2.4
2017-Dec-16 14:30N 43°35' W 003°08'1 2.3
2017-Dec-16 14:00N 43°34' W 003°07'1 1.6
2017-Dec-16 13:30N 43°34' W 003°07'1 1.5
2017-Dec-16 13:01N 43°34' W 003°08'1 1.3
2017-Dec-16 12:29N 43°34' W 003°09'2 3.6
2017-Dec-16 12:00N 43°34' W 003°12'3 5.1
2017-Dec-16 11:30N 43°36' W 003°14'1 1.4
2017-Dec-16 11:01N 43°36' W 003°13'1 2.2
2017-Dec-16 10:31N 43°35' W 003°12'1 1.9
2017-Dec-16 10:00N 43°35' W 003°11'1 1.9
2017-Dec-16 09:30N 43°34' W 003°10'1 1.5
2017-Dec-16 09:00N 43°33' W 003°10'1 1.4
2017-Dec-16 08:30N 43°33' W 003°09'1 1.3
2017-Dec-16 08:00N 43°32' W 003°08'0 0.8
2017-Dec-16 07:30N 43°32' W 003°08'2 4.2
2017-Dec-16 07:00N 43°33' W 003°10'3 5.2
2017-Dec-16 06:31N 43°34' W 003°14'1 1.6
2017-Dec-16 06:01N 43°35' W 003°14'1 1.2
2017-Dec-16 05:31N 43°35' W 003°13'1 1.0
2017-Dec-16 05:01N 43°35' W 003°13'0 0.8
2017-Dec-16 04:30N 43°35' W 003°12'0 0.5
2017-Dec-16 04:00N 43°35' W 003°12'0 0.9
2017-Dec-16 03:27N 43°34' W 003°12'1 1.5
2017-Dec-16 03:01N 43°34' W 003°11'0 0.5
2017-Dec-16 02:31N 43°35' W 003°11'1 1.6
2017-Dec-16 02:01N 43°34' W 003°12'1 1.6
2017-Dec-16 01:30N 43°33' W 003°12'0 1.0
2017-Dec-16 01:00N 43°33' W 003°13'1 1.5
2017-Dec-16 00:31N 43°33' W 003°12'1 1.2
2017-Dec-16 00:01N 43°33' W 003°11'1 1.4
2017-Dec-15 23:31N 43°33' W 003°12'1 1.5
2017-Dec-15 23:00N 43°33' W 003°13'0 0.9
2017-Dec-15 22:30N 43°32' W 003°13'0 0.8
2017-Dec-15 22:00N 43°32' W 003°13'1 1.1
2017-Dec-15 21:30N 43°32' W 003°12'1 1.1
2017-Dec-15 21:00N 43°31' W 003°11'1 1.2
2017-Dec-15 20:30N 43°31' W 003°11'0 0.9
2017-Dec-15 20:01N 43°31' W 003°10'1 1.0
2017-Dec-15 19:31N 43°31' W 003°09'1 1.1
2017-Dec-15 19:00N 43°31' W 003°09'0 1.0
2017-Dec-15 18:31N 43°31' W 003°08'1 0.9
2017-Dec-15 17:51N 43°31' W 003°07'0 0.6
2017-Dec-15 17:31N 43°31' W 003°07'0 0.4
2017-Dec-15 17:00N 43°31' W 003°07'0 0.6
2017-Dec-15 16:30N 43°31' W 003°06'0 0.5
2017-Dec-15 16:00N 43°31' W 003°06'0 0.3
2017-Dec-15 15:30N 43°31' W 003°06'0 0.4
2017-Dec-15 15:01N 43°31' W 003°06'0 0.6
2017-Dec-15 14:31N 43°32' W 003°06'0 0.7
2017-Dec-15 14:00N 43°32' W 003°06'1 1.3
2017-Dec-15 13:30N 43°32' W 003°07'0 0.5
2017-Dec-15 13:00N 43°32' W 003°07'0 0.5
2017-Dec-15 12:30N 43°32' W 003°08'0 0.7
2017-Dec-15 12:00N 43°32' W 003°08'0 0.7
2017-Dec-15 11:30N 43°32' W 003°09'0 0.5
2017-Dec-15 11:00N 43°31' W 003°09'0 0.3
2017-Dec-15 10:30N 43°31' W 003°09'0 0.1
2017-Dec-15 10:00N 43°31' W 003°09'0 0.4
2017-Dec-15 09:30N 43°32' W 003°09'0 0.4
2017-Dec-15 09:00N 43°32' W 003°09'0 0.3
2017-Dec-15 08:30N 43°32' W 003°09'0 0.4
2017-Dec-15 08:01N 43°32' W 003°08'0 0.9
2017-Dec-15 07:31N 43°32' W 003°08'0 0.9
2017-Dec-15 07:01N 43°33' W 003°08'0 0.7
2017-Dec-15 06:31N 43°33' W 003°07'0 0.8
2017-Dec-15 06:01N 43°33' W 003°07'0 0.7
2017-Dec-15 05:31N 43°34' W 003°07'1 1.6
2017-Dec-15 05:00N 43°33' W 003°08'1 1.4
2017-Dec-15 04:31N 43°33' W 003°09'1 2.8
2017-Dec-15 04:01N 43°31' W 003°10'2 1.4
2017-Dec-15 02:31N 43°30' W 003°12'2 1.0
2017-Dec-15 01:00N 43°31' W 003°11'0 1.0
2017-Dec-15 00:30N 43°32' W 003°11'1 0.2
2017-Dec-14 18:31N 43°31' W 003°09'1 1.3
2017-Dec-14 18:00N 43°32' W 003°09'0 1.0
2017-Dec-14 17:31N 43°33' W 003°09'0 1.0
2017-Dec-14 17:01N 43°33' W 003°08'1 1.3
2017-Dec-14 16:31N 43°33' W 003°08'1 1.4
2017-Dec-14 16:00N 43°34' W 003°07'1 1.2
2017-Dec-14 15:01N 43°35' W 003°06'0 0.9
2017-Dec-14 14:30N 43°35' W 003°06'  

Dump ship's entire track history